Naukati Bay, Alaska
Current Conditions -  °F | °C
As of 2:53 PM on Wednesday 26 Nov 2014 (Local Time) from PAKT Reporting Station
Clear Clear  
Wind Chill: 33°   Ceiling: Unl
Heat Index: 39°   Visibility: 10mi
Dew Point: 32°   Wind: 8mph
Humidity: 76%   Direction: 300°WNW
Pressure: 29.94"   Gusts: NA
Location:  55.5909°N, 131.349°W
Report Text: PAKT 262353Z 30007KT 10SM CLR 04/00 A2994 RMK AO2 SLP139 T00390000 10050 20011 56030
Loading
Personal Weather Stations






























Interactive Weather Map New forecast layout! Learn more

10-Day Weather Forecast

Advertisements
Track Severe Weather on mobile